Coe Leni — A8VR8 — position and weather

sailwx.info

Track history (hours):
 
Tides and Currents Weather Stations Pressure Air Temp Water Temp Dewpoint Dewpoint Depression Visibility Wind Speed Wind Dir Waves Ship Positions

Coe Leni

Last reported at 2016-Dec-09 18:31 UTC. Time now 2016-Dec-09 21:21 UTC.
Position N 36°34' E 014°02'.

Length 138 m; draft 8.1 m.

Type: Cargo ship. MMSI: 636092036.

Date/timePositionNaut miles runAvg speedWind from/ knotsBaromVisibWave heightAir tempDewpointWater temp
2016-Dec-09 18:31N 36°34' E 014°02'1413.3
2016-Dec-09 17:30N 36°29' E 014°17'1313.4
2016-Dec-09 16:33N 36°25' E 014°32'48513.0
2016-Dec-08 03:18N 37°47' E 024°32'  
2016-Dec-02 03:09N 38°01' E 024°40'915.0
2016-Dec-02 02:33N 37°53' E 024°36'1514.8
2016-Dec-02 01:33N 37°39' E 024°30'1514.5
2016-Dec-02 00:33N 37°28' E 024°18'38510.4
2016-Nov-30 11:33N 37°42' E 016°12'1414.0
2016-Nov-30 10:31N 37°47' E 015°55'1414.5
2016-Nov-30 09:33N 37°52' E 015°39'1414.4
2016-Nov-30 08:33N 38°06' E 015°35'1212.0
2016-Nov-30 07:34N 38°17' E 015°41'1515.2
2016-Nov-30 06:32N 38°32' E 015°34'11814.7
2016-Nov-29 22:34N 40°23' E 014°43'  
Track history (hours):
 
Tides and Currents Weather Stations Pressure Air Temp Water Temp Dewpoint Dewpoint Depression Visibility Wind Speed Wind Dir Waves Ship Positions

Coe Leni

Last reported at 2016-Dec-09 18:31 UTC. Time now 2016-Dec-09 21:21 UTC.
Position N 36°34' E 014°02'.

Length 138 m; draft 8.1 m.

Type: Cargo ship. MMSI: 636092036.

Date/timePositionNaut miles runAvg speedWind from/ knotsBaromVisibWave heightAir tempDewpointWater temp
2016-Dec-09 18:31N 36°34' E 014°02'1413.3
2016-Dec-09 17:30N 36°29' E 014°17'1313.4
2016-Dec-09 16:33N 36°25' E 014°32'48513.0
2016-Dec-08 03:18N 37°47' E 024°32'  
2016-Dec-02 03:09N 38°01' E 024°40'915.0
2016-Dec-02 02:33N 37°53' E 024°36'1514.8
2016-Dec-02 01:33N 37°39' E 024°30'1514.5
2016-Dec-02 00:33N 37°28' E 024°18'38510.4
2016-Nov-30 11:33N 37°42' E 016°12'1414.0
2016-Nov-30 10:31N 37°47' E 015°55'1414.5
2016-Nov-30 09:33N 37°52' E 015°39'1414.4
2016-Nov-30 08:33N 38°06' E 015°35'1212.0
2016-Nov-30 07:34N 38°17' E 015°41'1515.2
2016-Nov-30 06:32N 38°32' E 015°34'11814.7
2016-Nov-29 22:34N 40°23' E 014°43'  

Dump ship's entire track history